sensor_id;sensor_type;location;lat;lon;timestamp;P1;durP1;ratioP1;P2;durP2;ratioP2
75818;SDS011;64453;51.944;9.796;2023-09-12T00:01:42;9.13;;;7.40;;
75818;SDS011;64453;51.944;9.796;2023-09-12T00:04:09;17.03;;;8.27;;
75818;SDS011;64453;51.944;9.796;2023-09-12T00:06:37;8.13;;;7.33;;
75818;SDS011;64453;51.944;9.796;2023-09-12T00:09:04;14.47;;;8.10;;
75818;SDS011;64453;51.944;9.796;2023-09-12T00:11:31;9.87;;;7.90;;
75818;SDS011;64453;51.944;9.796;2023-09-12T00:13:58;9.43;;;7.70;;
75818;SDS011;64453;51.944;9.796;2023-09-12T00:16:26;15.33;;;7.73;;
75818;SDS011;64453;51.944;9.796;2023-09-12T00:18:53;11.20;;;7.93;;
75818;SDS011;64453;51.944;9.796;2023-09-12T00:21:20;8.17;;;7.30;;
75818;SDS011;64453;51.944;9.796;2023-09-12T00:23:47;10.00;;;7.80;;
75818;SDS011;64453;51.944;9.796;2023-09-12T00:26:14;9.40;;;7.17;;
75818;SDS011;64453;51.944;9.796;2023-09-12T00:28:41;9.60;;;7.47;;
75818;SDS011;64453;51.944;9.796;2023-09-12T00:31:08;12.17;;;7.40;;
75818;SDS011;64453;51.944;9.796;2023-09-12T00:33:37;9.33;;;8.30;;
75818;SDS011;64453;51.944;9.796;2023-09-12T00:36:04;12.20;;;8.00;;
75818;SDS011;64453;51.944;9.796;2023-09-12T00:38:30;8.43;;;7.60;;
75818;SDS011;64453;51.944;9.796;2023-09-12T00:40:57;8.43;;;7.60;;
75818;SDS011;64453;51.944;9.796;2023-09-12T00:43:24;8.30;;;7.43;;
75818;SDS011;64453;51.944;9.796;2023-09-12T00:45:51;7.83;;;7.03;;
75818;SDS011;64453;51.944;9.796;2023-09-12T00:48:18;11.27;;;7.60;;
75818;SDS011;64453;51.944;9.796;2023-09-12T00:50:49;9.83;;;7.83;;
75818;SDS011;64453;51.944;9.796;2023-09-12T00:53:17;10.13;;;7.10;;
75818;SDS011;64453;51.944;9.796;2023-09-12T00:55:46;10.90;;;8.10;;
75818;SDS011;64453;51.944;9.796;2023-09-12T00:58:21;8.43;;;7.20;;
75818;SDS011;64453;51.944;9.796;2023-09-12T01:00:48;9.43;;;8.17;;
75818;SDS011;64453;51.944;9.796;2023-09-12T01:03:15;8.37;;;7.53;;
75818;SDS011;64453;51.944;9.796;2023-09-12T01:05:42;9.23;;;7.67;;
75818;SDS011;64453;51.944;9.796;2023-09-12T01:08:11;9.57;;;7.50;;
75818;SDS011;64453;51.944;9.796;2023-09-12T01:10:38;11.43;;;8.10;;
75818;SDS011;64453;51.944;9.796;2023-09-12T01:13:11;8.70;;;7.90;;
75818;SDS011;64453;51.944;9.796;2023-09-12T01:15:39;8.10;;;7.30;;
75818;SDS011;64453;51.944;9.796;2023-09-12T01:18:07;10.53;;;7.40;;
75818;SDS011;64453;51.944;9.796;2023-09-12T01:20:34;13.33;;;7.23;;
75818;SDS011;64453;51.944;9.796;2023-09-12T01:23:08;7.13;;;6.53;;
75818;SDS011;64453;51.944;9.796;2023-09-12T01:26:01;11.00;;;7.77;;
75818;SDS011;64453;51.944;9.796;2023-09-12T01:28:51;9.40;;;7.53;;
75818;SDS011;64453;51.944;9.796;2023-09-12T01:31:21;8.27;;;7.47;;
75818;SDS011;64453;51.944;9.796;2023-09-12T01:33:54;11.50;;;7.13;;
75818;SDS011;64453;51.944;9.796;2023-09-12T01:36:22;9.03;;;7.70;;
75818;SDS011;64453;51.944;9.796;2023-09-12T01:38:49;8.40;;;7.53;;
75818;SDS011;64453;51.944;9.796;2023-09-12T01:41:16;9.20;;;7.57;;
75818;SDS011;64453;51.944;9.796;2023-09-12T01:43:44;12.43;;;7.70;;
75818;SDS011;64453;51.944;9.796;2023-09-12T01:46:14;8.20;;;7.00;;
75818;SDS011;64453;51.944;9.796;2023-09-12T01:48:43;9.73;;;7.33;;
75818;SDS011;64453;51.944;9.796;2023-09-12T01:51:11;8.13;;;7.30;;
75818;SDS011;64453;51.944;9.796;2023-09-12T01:53:39;13.00;;;6.97;;
75818;SDS011;64453;51.944;9.796;2023-09-12T01:56:06;9.20;;;8.07;;
75818;SDS011;64453;51.944;9.796;2023-09-12T01:58:35;10.07;;;7.03;;
75818;SDS011;64453;51.944;9.796;2023-09-12T02:01:02;8.90;;;8.10;;
75818;SDS011;64453;51.944;9.796;2023-09-12T02:03:30;9.23;;;7.60;;
75818;SDS011;64453;51.944;9.796;2023-09-12T02:05:57;9.67;;;8.30;;
75818;SDS011;64453;51.944;9.796;2023-09-12T02:08:24;8.13;;;6.90;;
75818;SDS011;64453;51.944;9.796;2023-09-12T02:10:51;9.20;;;7.77;;
75818;SDS011;64453;51.944;9.796;2023-09-12T02:13:18;9.90;;;8.13;;
75818;SDS011;64453;51.944;9.796;2023-09-12T02:15:45;10.73;;;8.80;;
75818;SDS011;64453;51.944;9.796;2023-09-12T02:18:12;13.40;;;8.43;;
75818;SDS011;64453;51.944;9.796;2023-09-12T02:20:41;8.60;;;7.80;;
75818;SDS011;64453;51.944;9.796;2023-09-12T02:23:10;9.13;;;7.40;;
75818;SDS011;64453;51.944;9.796;2023-09-12T02:25:37;9.03;;;8.13;;
75818;SDS011;64453;51.944;9.796;2023-09-12T02:28:05;10.87;;;8.90;;
75818;SDS011;64453;51.944;9.796;2023-09-12T02:30:32;10.00;;;8.23;;
75818;SDS011;64453;51.944;9.796;2023-09-12T02:32:58;13.80;;;8.07;;
75818;SDS011;64453;51.944;9.796;2023-09-12T02:35:27;9.63;;;8.33;;
75818;SDS011;64453;51.944;9.796;2023-09-12T02:37:55;9.80;;;7.43;;
75818;SDS011;64453;51.944;9.796;2023-09-12T02:40:22;15.93;;;8.97;;
75818;SDS011;64453;51.944;9.796;2023-09-12T02:42:49;11.00;;;7.93;;
75818;SDS011;64453;51.944;9.796;2023-09-12T02:45:17;12.80;;;7.87;;
75818;SDS011;64453;51.944;9.796;2023-09-12T02:47:44;9.57;;;8.20;;
75818;SDS011;64453;51.944;9.796;2023-09-12T02:50:11;10.43;;;8.37;;
75818;SDS011;64453;51.944;9.796;2023-09-12T02:52:38;9.87;;;8.37;;
75818;SDS011;64453;51.944;9.796;2023-09-12T02:55:07;10.87;;;8.77;;
75818;SDS011;64453;51.944;9.796;2023-09-12T02:57:34;8.63;;;7.73;;
75818;SDS011;64453;51.944;9.796;2023-09-12T03:00:01;10.30;;;8.27;;
75818;SDS011;64453;51.944;9.796;2023-09-12T03:02:32;10.30;;;8.93;;
75818;SDS011;64453;51.944;9.796;2023-09-12T03:04:59;9.80;;;8.80;;
75818;SDS011;64453;51.944;9.796;2023-09-12T03:07:26;10.90;;;9.07;;
75818;SDS011;64453;51.944;9.796;2023-09-12T03:09:53;9.07;;;8.27;;
75818;SDS011;64453;51.944;9.796;2023-09-12T03:12:22;10.43;;;9.40;;
75818;SDS011;64453;51.944;9.796;2023-09-12T03:14:48;9.93;;;8.00;;
75818;SDS011;64453;51.944;9.796;2023-09-12T03:17:15;16.40;;;8.03;;
75818;SDS011;64453;51.944;9.796;2023-09-12T03:19:42;14.27;;;8.40;;
75818;SDS011;64453;51.944;9.796;2023-09-12T03:22:09;9.50;;;8.03;;
75818;SDS011;64453;51.944;9.796;2023-09-12T03:24:36;10.30;;;7.63;;
75818;SDS011;64453;51.944;9.796;2023-09-12T03:27:03;11.50;;;8.37;;
75818;SDS011;64453;51.944;9.796;2023-09-12T03:29:32;8.90;;;7.97;;
75818;SDS011;64453;51.944;9.796;2023-09-12T03:31:58;10.93;;;7.83;;
75818;SDS011;64453;51.944;9.796;2023-09-12T03:34:25;10.73;;;8.37;;
75818;SDS011;64453;51.944;9.796;2023-09-12T03:36:52;12.70;;;8.97;;
75818;SDS011;64453;51.944;9.796;2023-09-12T03:39:19;9.13;;;8.20;;
75818;SDS011;64453;51.944;9.796;2023-09-12T03:41:46;11.57;;;8.23;;
75818;SDS011;64453;51.944;9.796;2023-09-12T03:44:13;11.13;;;8.67;;
75818;SDS011;64453;51.944;9.796;2023-09-12T03:46:42;12.07;;;8.40;;
75818;SDS011;64453;51.944;9.796;2023-09-12T03:49:08;9.60;;;8.37;;
75818;SDS011;64453;51.944;9.796;2023-09-12T03:51:35;10.13;;;8.17;;
75818;SDS011;64453;51.944;9.796;2023-09-12T03:54:03;12.03;;;9.37;;
75818;SDS011;64453;51.944;9.796;2023-09-12T03:56:30;11.17;;;10.00;;
75818;SDS011;64453;51.944;9.796;2023-09-12T03:58:57;10.60;;;8.33;;
75818;SDS011;64453;51.944;9.796;2023-09-12T04:01:25;15.80;;;10.33;;
75818;SDS011;64453;51.944;9.796;2023-09-12T04:03:54;10.90;;;9.50;;
75818;SDS011;64453;51.944;9.796;2023-09-12T04:06:21;13.73;;;9.63;;
75818;SDS011;64453;51.944;9.796;2023-09-12T04:08:48;10.77;;;9.67;;
75818;SDS011;64453;51.944;9.796;2023-09-12T04:11:15;10.67;;;9.03;;
75818;SDS011;64453;51.944;9.796;2023-09-12T04:13:42;13.10;;;9.13;;
75818;SDS011;64453;51.944;9.796;2023-09-12T04:16:09;10.50;;;9.50;;
75818;SDS011;64453;51.944;9.796;2023-09-12T04:18:36;10.93;;;9.70;;
75818;SDS011;64453;51.944;9.796;2023-09-12T04:21:05;12.57;;;10.37;;
75818;SDS011;64453;51.944;9.796;2023-09-12T04:23:32;11.17;;;9.80;;
75818;SDS011;64453;51.944;9.796;2023-09-12T04:25:59;11.07;;;9.10;;
75818;SDS011;64453;51.944;9.796;2023-09-12T04:28:28;11.20;;;9.50;;
75818;SDS011;64453;51.944;9.796;2023-09-12T04:31:00;11.00;;;8.77;;
75818;SDS011;64453;51.944;9.796;2023-09-12T04:33:28;10.70;;;9.70;;
75818;SDS011;64453;51.944;9.796;2023-09-12T04:35:57;11.03;;;9.77;;
75818;SDS011;64453;51.944;9.796;2023-09-12T04:38:26;13.47;;;10.60;;
75818;SDS011;64453;51.944;9.796;2023-09-12T04:40:54;12.40;;;10.13;;
75818;SDS011;64453;51.944;9.796;2023-09-12T04:43:21;10.60;;;9.50;;
75818;SDS011;64453;51.944;9.796;2023-09-12T04:45:48;10.40;;;9.40;;
75818;SDS011;64453;51.944;9.796;2023-09-12T04:48:15;12.60;;;10.00;;
75818;SDS011;64453;51.944;9.796;2023-09-12T04:50:42;11.20;;;10.00;;
75818;SDS011;64453;51.944;9.796;2023-09-12T04:53:10;11.80;;;10.07;;
75818;SDS011;64453;51.944;9.796;2023-09-12T04:55:39;10.97;;;9.70;;
75818;SDS011;64453;51.944;9.796;2023-09-12T04:58:06;10.80;;;9.80;;
75818;SDS011;64453;51.944;9.796;2023-09-12T05:00:33;12.57;;;10.90;;
75818;SDS011;64453;51.944;9.796;2023-09-12T05:03:01;13.63;;;10.10;;
75818;SDS011;64453;51.944;9.796;2023-09-12T05:05:29;12.70;;;10.00;;
75818;SDS011;64453;51.944;9.796;2023-09-12T05:07:56;11.67;;;9.90;;
75818;SDS011;64453;51.944;9.796;2023-09-12T05:10:24;12.17;;;10.90;;
75818;SDS011;64453;51.944;9.796;2023-09-12T05:12:52;14.43;;;10.70;;
75818;SDS011;64453;51.944;9.796;2023-09-12T05:15:19;13.77;;;10.37;;
75818;SDS011;64453;51.944;9.796;2023-09-12T05:17:46;13.70;;;10.70;;
75818;SDS011;64453;51.944;9.796;2023-09-12T05:20:12;12.97;;;11.60;;
75818;SDS011;64453;51.944;9.796;2023-09-12T05:22:40;10.77;;;9.80;;
75818;SDS011;64453;51.944;9.796;2023-09-12T05:25:07;12.07;;;11.00;;
75818;SDS011;64453;51.944;9.796;2023-09-12T05:27:34;17.17;;;11.30;;
75818;SDS011;64453;51.944;9.796;2023-09-12T05:30:03;15.83;;;11.07;;
75818;SDS011;64453;51.944;9.796;2023-09-12T05:32:31;15.77;;;10.63;;
75818;SDS011;64453;51.944;9.796;2023-09-12T05:34:58;11.97;;;10.97;;
75818;SDS011;64453;51.944;9.796;2023-09-12T05:37:25;12.93;;;11.63;;
75818;SDS011;64453;51.944;9.796;2023-09-12T05:39:52;14.30;;;11.27;;
75818;SDS011;64453;51.944;9.796;2023-09-12T05:42:19;12.67;;;11.37;;
75818;SDS011;64453;51.944;9.796;2023-09-12T05:44:47;12.80;;;11.50;;
75818;SDS011;64453;51.944;9.796;2023-09-12T05:47:17;15.77;;;11.27;;
75818;SDS011;64453;51.944;9.796;2023-09-12T05:49:44;15.07;;;10.57;;
75818;SDS011;64453;51.944;9.796;2023-09-12T05:52:11;12.47;;;11.30;;
75818;SDS011;64453;51.944;9.796;2023-09-12T05:54:38;14.23;;;11.50;;
75818;SDS011;64453;51.944;9.796;2023-09-12T05:57:05;11.73;;;10.30;;
75818;SDS011;64453;51.944;9.796;2023-09-12T05:59:34;13.07;;;11.57;;
75818;SDS011;64453;51.944;9.796;2023-09-12T06:02:02;14.63;;;11.50;;
75818;SDS011;64453;51.944;9.796;2023-09-12T06:04:32;14.87;;;12.30;;
75818;SDS011;64453;51.944;9.796;2023-09-12T06:07:01;14.40;;;11.37;;
75818;SDS011;64453;51.944;9.796;2023-09-12T06:09:29;12.73;;;11.40;;
75818;SDS011;64453;51.944;9.796;2023-09-12T06:11:55;13.00;;;11.20;;
75818;SDS011;64453;51.944;9.796;2023-09-12T06:14:23;12.87;;;11.50;;
75818;SDS011;64453;51.944;9.796;2023-09-12T06:16:50;13.23;;;11.77;;
75818;SDS011;64453;51.944;9.796;2023-09-12T06:19:17;14.50;;;12.23;;
75818;SDS011;64453;51.944;9.796;2023-09-12T06:21:46;14.10;;;12.60;;
75818;SDS011;64453;51.944;9.796;2023-09-12T06:24:14;15.13;;;12.50;;
75818;SDS011;64453;51.944;9.796;2023-09-12T06:26:42;13.97;;;12.33;;
75818;SDS011;64453;51.944;9.796;2023-09-12T06:29:09;14.03;;;12.40;;
75818;SDS011;64453;51.944;9.796;2023-09-12T06:31:36;15.20;;;12.33;;
75818;SDS011;64453;51.944;9.796;2023-09-12T06:34:03;15.60;;;13.07;;
75818;SDS011;64453;51.944;9.796;2023-09-12T06:36:30;16.80;;;12.20;;
75818;SDS011;64453;51.944;9.796;2023-09-12T06:38:59;13.20;;;11.93;;
75818;SDS011;64453;51.944;9.796;2023-09-12T06:41:26;13.70;;;12.20;;
75818;SDS011;64453;51.944;9.796;2023-09-12T06:43:53;15.27;;;13.73;;
75818;SDS011;64453;51.944;9.796;2023-09-12T06:46:22;14.70;;;13.30;;
75818;SDS011;64453;51.944;9.796;2023-09-12T06:48:49;13.93;;;12.47;;
75818;SDS011;64453;51.944;9.796;2023-09-12T06:51:16;12.87;;;11.57;;
75818;SDS011;64453;51.944;9.796;2023-09-12T06:53:43;14.10;;;12.70;;
75818;SDS011;64453;51.944;9.796;2023-09-12T06:56:11;14.77;;;13.13;;
75818;SDS011;64453;51.944;9.796;2023-09-12T06:58:38;13.87;;;11.53;;
75818;SDS011;64453;51.944;9.796;2023-09-12T07:01:05;15.70;;;14.07;;
75818;SDS011;64453;51.944;9.796;2023-09-12T07:03:33;16.10;;;13.83;;
75818;SDS011;64453;51.944;9.796;2023-09-12T07:06:01;14.83;;;13.33;;
75818;SDS011;64453;51.944;9.796;2023-09-12T07:08:30;19.33;;;14.90;;
75818;SDS011;64453;51.944;9.796;2023-09-12T07:10:58;16.53;;;14.93;;
75818;SDS011;64453;51.944;9.796;2023-09-12T07:13:32;19.80;;;15.67;;
75818;SDS011;64453;51.944;9.796;2023-09-12T07:15:59;16.80;;;14.50;;
75818;SDS011;64453;51.944;9.796;2023-09-12T07:18:28;17.00;;;15.23;;
75818;SDS011;64453;51.944;9.796;2023-09-12T07:20:57;16.53;;;14.30;;
75818;SDS011;64453;51.944;9.796;2023-09-12T07:23:25;15.30;;;13.70;;
75818;SDS011;64453;51.944;9.796;2023-09-12T07:25:52;17.17;;;14.47;;
75818;SDS011;64453;51.944;9.796;2023-09-12T07:28:20;20.03;;;14.30;;
75818;SDS011;64453;51.944;9.796;2023-09-12T07:30:48;17.20;;;15.33;;
75818;SDS011;64453;51.944;9.796;2023-09-12T07:33:16;16.63;;;14.83;;
75818;SDS011;64453;51.944;9.796;2023-09-12T07:35:42;15.97;;;14.47;;
75818;SDS011;64453;51.944;9.796;2023-09-12T07:38:09;20.40;;;18.27;;
75818;SDS011;64453;51.944;9.796;2023-09-12T07:40:36;20.93;;;18.73;;
75818;SDS011;64453;51.944;9.796;2023-09-12T07:43:03;19.97;;;15.57;;
75818;SDS011;64453;51.944;9.796;2023-09-12T07:45:32;15.70;;;12.47;;
75818;SDS011;64453;51.944;9.796;2023-09-12T07:48:04;13.10;;;11.50;;
75818;SDS011;64453;51.944;9.796;2023-09-12T07:50:32;15.67;;;11.90;;
75818;SDS011;64453;51.944;9.796;2023-09-12T07:52:59;11.07;;;9.93;;
75818;SDS011;64453;51.944;9.796;2023-09-12T07:55:26;11.67;;;10.33;;
75818;SDS011;64453;51.944;9.796;2023-09-12T07:57:55;13.20;;;10.80;;
75818;SDS011;64453;51.944;9.796;2023-09-12T08:00:23;11.70;;;10.60;;
75818;SDS011;64453;51.944;9.796;2023-09-12T08:02:50;12.40;;;10.80;;
75818;SDS011;64453;51.944;9.796;2023-09-12T08:05:18;13.23;;;10.90;;
75818;SDS011;64453;51.944;9.796;2023-09-12T08:07:45;13.30;;;7.37;;
75818;SDS011;64453;51.944;9.796;2023-09-12T08:10:12;7.50;;;6.80;;
75818;SDS011;64453;51.944;9.796;2023-09-12T08:12:39;7.23;;;5.90;;
75818;SDS011;64453;51.944;9.796;2023-09-12T08:15:07;6.00;;;5.60;;
75818;SDS011;64453;51.944;9.796;2023-09-12T08:17:35;7.00;;;6.30;;
75818;SDS011;64453;51.944;9.796;2023-09-12T08:20:03;5.00;;;4.57;;
75818;SDS011;64453;51.944;9.796;2023-09-12T08:22:33;5.80;;;5.30;;
75818;SDS011;64453;51.944;9.796;2023-09-12T08:25:00;5.30;;;4.60;;
75818;SDS011;64453;51.944;9.796;2023-09-12T08:27:26;5.10;;;4.70;;
75818;SDS011;64453;51.944;9.796;2023-09-12T08:29:53;5.03;;;4.70;;
75818;SDS011;64453;51.944;9.796;2023-09-12T08:32:20;5.18;;;4.68;;
75818;SDS011;64453;51.944;9.796;2023-09-12T08:34:47;5.55;;;5.05;;
75818;SDS011;64453;51.944;9.796;2023-09-12T08:37:14;4.90;;;4.60;;
75818;SDS011;64453;51.944;9.796;2023-09-12T08:39:43;6.18;;;5.57;;
75818;SDS011;64453;51.944;9.796;2023-09-12T08:42:11;6.22;;;5.63;;
75818;SDS011;64453;51.944;9.796;2023-09-12T08:44:40;6.55;;;5.35;;
75818;SDS011;64453;51.944;9.796;2023-09-12T08:47:07;6.30;;;5.25;;
75818;SDS011;64453;51.944;9.796;2023-09-12T08:49:35;6.45;;;5.88;;
75818;SDS011;64453;51.944;9.796;2023-09-12T08:52:03;5.88;;;5.38;;
75818;SDS011;64453;51.944;9.796;2023-09-12T08:54:30;6.30;;;5.55;;
75818;SDS011;64453;51.944;9.796;2023-09-12T08:56:59;5.32;;;4.93;;
75818;SDS011;64453;51.944;9.796;2023-09-12T08:59:28;5.18;;;4.78;;
75818;SDS011;64453;51.944;9.796;2023-09-12T09:01:56;5.13;;;4.57;;
75818;SDS011;64453;51.944;9.796;2023-09-12T09:04:24;6.50;;;5.78;;
75818;SDS011;64453;51.944;9.796;2023-09-12T09:06:53;8.27;;;5.80;;
75818;SDS011;64453;51.944;9.796;2023-09-12T09:09:21;5.88;;;5.13;;
75818;SDS011;64453;51.944;9.796;2023-09-12T09:11:50;6.43;;;5.75;;
75818;SDS011;64453;51.944;9.796;2023-09-12T09:14:18;6.90;;;6.20;;
75818;SDS011;64453;51.944;9.796;2023-09-12T09:16:45;8.38;;;5.95;;
75818;SDS011;64453;51.944;9.796;2023-09-12T09:19:12;7.30;;;6.60;;
75818;SDS011;64453;51.944;9.796;2023-09-12T09:21:40;7.75;;;7.05;;
75818;SDS011;64453;51.944;9.796;2023-09-12T09:24:08;9.20;;;8.27;;
75818;SDS011;64453;51.944;9.796;2023-09-12T09:26:43;9.35;;;8.55;;
75818;SDS011;64453;51.944;9.796;2023-09-12T09:29:13;8.60;;;7.70;;
75818;SDS011;64453;51.944;9.796;2023-09-12T09:31:43;7.05;;;6.47;;
75818;SDS011;64453;51.944;9.796;2023-09-12T09:34:12;7.90;;;6.82;;
75818;SDS011;64453;51.944;9.796;2023-09-12T09:36:40;7.15;;;6.47;;
75818;SDS011;64453;51.944;9.796;2023-09-12T09:39:09;6.00;;;5.60;;
75818;SDS011;64453;51.944;9.796;2023-09-12T09:41:37;5.80;;;5.30;;
75818;SDS011;64453;51.944;9.796;2023-09-12T09:44:05;5.65;;;5.15;;
75818;SDS011;64453;51.944;9.796;2023-09-12T09:46:33;6.38;;;5.20;;
75818;SDS011;64453;51.944;9.796;2023-09-12T09:49:03;10.30;;;5.30;;
75818;SDS011;64453;51.944;9.796;2023-09-12T09:51:31;8.05;;;4.53;;
75818;SDS011;64453;51.944;9.796;2023-09-12T09:53:59;5.30;;;4.82;;
75818;SDS011;64453;51.944;9.796;2023-09-12T09:56:26;5.72;;;4.78;;
75818;SDS011;64453;51.944;9.796;2023-09-12T09:58:53;5.38;;;4.88;;
75818;SDS011;64453;51.944;9.796;2023-09-12T10:01:22;4.07;;;3.78;;
75818;SDS011;64453;51.944;9.796;2023-09-12T10:03:55;4.55;;;4.25;;
75818;SDS011;64453;51.944;9.796;2023-09-12T10:06:27;4.50;;;4.20;;
75818;SDS011;64453;51.944;9.796;2023-09-12T10:08:55;4.82;;;4.47;;
75818;SDS011;64453;51.944;9.796;2023-09-12T10:11:25;3.80;;;3.53;;
75818;SDS011;64453;51.944;9.796;2023-09-12T10:13:59;4.10;;;3.80;;
75818;SDS011;64453;51.944;9.796;2023-09-12T10:16:30;4.32;;;4.03;;
75818;SDS011;64453;51.944;9.796;2023-09-12T10:18:59;6.03;;;4.15;;
75818;SDS011;64453;51.944;9.796;2023-09-12T10:21:33;5.28;;;4.45;;
75818;SDS011;64453;51.944;9.796;2023-09-12T10:24:02;5.40;;;3.97;;
75818;SDS011;64453;51.944;9.796;2023-09-12T10:26:31;4.43;;;4.13;;
75818;SDS011;64453;51.944;9.796;2023-09-12T10:28:59;5.25;;;4.15;;
75818;SDS011;64453;51.944;9.796;2023-09-12T10:31:28;4.53;;;4.13;;
75818;SDS011;64453;51.944;9.796;2023-09-12T10:33:56;4.03;;;3.83;;
75818;SDS011;64453;51.944;9.796;2023-09-12T10:36:25;4.00;;;3.70;;
75818;SDS011;64453;51.944;9.796;2023-09-12T10:38:54;3.88;;;3.65;;
75818;SDS011;64453;51.944;9.796;2023-09-12T10:41:23;3.72;;;3.53;;
75818;SDS011;64453;51.944;9.796;2023-09-12T10:43:50;3.90;;;3.70;;
75818;SDS011;64453;51.944;9.796;2023-09-12T10:46:20;3.40;;;3.10;;
75818;SDS011;64453;51.944;9.796;2023-09-12T10:48:48;3.85;;;3.65;;
75818;SDS011;64453;51.944;9.796;2023-09-12T10:51:15;4.70;;;3.67;;
75818;SDS011;64453;51.944;9.796;2023-09-12T10:53:46;3.95;;;3.50;;
75818;SDS011;64453;51.944;9.796;2023-09-12T10:56:17;3.60;;;3.30;;
75818;SDS011;64453;51.944;9.796;2023-09-12T11:01:39;3.72;;;3.53;;
75818;SDS011;64453;51.944;9.796;2023-09-12T11:10:18;4.18;;;3.88;;
75818;SDS011;64453;51.944;9.796;2023-09-12T11:12:48;3.90;;;3.60;;
75818;SDS011;64453;51.944;9.796;2023-09-12T11:15:17;3.60;;;3.40;;
75818;SDS011;64453;51.944;9.796;2023-09-12T11:17:45;4.80;;;4.32;;
75818;SDS011;64453;51.944;9.796;2023-09-12T11:20:13;6.05;;;3.55;;
75818;SDS011;64453;51.944;9.796;2023-09-12T11:22:42;3.78;;;3.58;;
75818;SDS011;64453;51.944;9.796;2023-09-12T11:25:17;3.00;;;2.80;;
75818;SDS011;64453;51.944;9.796;2023-09-12T11:28:02;3.58;;;3.13;;
75818;SDS011;64453;51.944;9.796;2023-09-12T11:30:31;3.30;;;3.10;;
75818;SDS011;64453;51.944;9.796;2023-09-12T11:33:02;3.17;;;2.97;;
75818;SDS011;64453;51.944;9.796;2023-09-12T11:35:35;3.90;;;3.28;;
75818;SDS011;64453;51.944;9.796;2023-09-12T11:38:09;2.72;;;2.53;;
75818;SDS011;64453;51.944;9.796;2023-09-12T11:40:43;2.75;;;2.55;;
75818;SDS011;64453;51.944;9.796;2023-09-12T11:43:20;2.45;;;2.30;;
75818;SDS011;64453;51.944;9.796;2023-09-12T11:45:49;2.70;;;2.50;;
75818;SDS011;64453;51.944;9.796;2023-09-12T11:48:17;2.30;;;2.20;;
75818;SDS011;64453;51.944;9.796;2023-09-12T11:50:48;1.90;;;1.80;;
75818;SDS011;64453;51.944;9.796;2023-09-12T11:53:19;3.10;;;2.40;;
75818;SDS011;64453;51.944;9.796;2023-09-12T11:55:48;2.50;;;2.40;;
75818;SDS011;64453;51.944;9.796;2023-09-12T11:58:18;2.25;;;2.15;;
75818;SDS011;64453;51.944;9.796;2023-09-12T12:00:47;3.03;;;2.88;;
75818;SDS011;64453;51.944;9.796;2023-09-12T12:03:16;3.38;;;3.08;;
75818;SDS011;64453;51.944;9.796;2023-09-12T12:05:46;2.78;;;2.63;;
75818;SDS011;64453;51.944;9.796;2023-09-12T12:08:14;3.10;;;2.90;;
75818;SDS011;64453;51.944;9.796;2023-09-12T12:10:43;2.08;;;1.98;;
75818;SDS011;64453;51.944;9.796;2023-09-12T12:13:16;2.78;;;2.58;;
75818;SDS011;64453;51.944;9.796;2023-09-12T12:15:45;2.08;;;1.98;;
75818;SDS011;64453;51.944;9.796;2023-09-12T12:18:12;2.15;;;2.05;;
75818;SDS011;64453;51.944;9.796;2023-09-12T12:20:39;1.92;;;1.83;;
75818;SDS011;64453;51.944;9.796;2023-09-12T12:23:06;1.98;;;1.88;;
75818;SDS011;64453;51.944;9.796;2023-09-12T12:25:33;2.28;;;2.03;;
75818;SDS011;64453;51.944;9.796;2023-09-12T12:28:01;1.70;;;1.60;;
75818;SDS011;64453;51.944;9.796;2023-09-12T12:30:30;2.78;;;2.58;;
75818;SDS011;64453;51.944;9.796;2023-09-12T12:33:00;2.90;;;2.70;;
75818;SDS011;64453;51.944;9.796;2023-09-12T12:35:28;2.30;;;2.20;;
75818;SDS011;64453;51.944;9.796;2023-09-12T12:37:55;2.35;;;1.70;;
75818;SDS011;64453;51.944;9.796;2023-09-12T12:40:22;2.30;;;2.20;;
75818;SDS011;64453;51.944;9.796;2023-09-12T12:42:50;2.30;;;2.20;;
75818;SDS011;64453;51.944;9.796;2023-09-12T12:45:19;2.58;;;2.42;;
75818;SDS011;64453;51.944;9.796;2023-09-12T12:47:50;3.25;;;2.95;;
75818;SDS011;64453;51.944;9.796;2023-09-12T12:50:25;3.20;;;2.88;;
75818;SDS011;64453;51.944;9.796;2023-09-12T12:52:52;2.92;;;2.30;;
75818;SDS011;64453;51.944;9.796;2023-09-12T12:55:20;2.22;;;2.10;;
75818;SDS011;64453;51.944;9.796;2023-09-12T12:57:48;2.17;;;2.08;;
75818;SDS011;64453;51.944;9.796;2023-09-12T13:00:15;3.80;;;2.13;;
75818;SDS011;64453;51.944;9.796;2023-09-12T13:02:44;2.45;;;2.35;;
75818;SDS011;64453;51.944;9.796;2023-09-12T13:05:19;2.60;;;2.40;;
75818;SDS011;64453;51.944;9.796;2023-09-12T13:07:56;3.17;;;2.88;;
75818;SDS011;64453;51.944;9.796;2023-09-12T13:10:23;2.05;;;1.95;;
75818;SDS011;64453;51.944;9.796;2023-09-12T13:12:50;2.00;;;1.88;;
75818;SDS011;64453;51.944;9.796;2023-09-12T13:15:17;2.33;;;2.00;;
75818;SDS011;64453;51.944;9.796;2023-09-12T13:17:44;2.10;;;1.90;;
75818;SDS011;64453;51.944;9.796;2023-09-12T13:20:12;2.22;;;2.13;;
75818;SDS011;64453;51.944;9.796;2023-09-12T13:22:39;3.05;;;2.55;;
75818;SDS011;64453;51.944;9.796;2023-09-12T13:25:10;2.38;;;2.17;;
75818;SDS011;64453;51.944;9.796;2023-09-12T13:27:37;2.22;;;2.13;;
75818;SDS011;64453;51.944;9.796;2023-09-12T13:30:04;2.60;;;2.40;;
75818;SDS011;64453;51.944;9.796;2023-09-12T13:32:33;2.53;;;2.15;;
75818;SDS011;64453;51.944;9.796;2023-09-12T13:35:00;2.03;;;1.90;;
75818;SDS011;64453;51.944;9.796;2023-09-12T13:37:27;3.17;;;2.03;;
75818;SDS011;64453;51.944;9.796;2023-09-12T13:39:55;1.75;;;1.73;;
75818;SDS011;64453;51.944;9.796;2023-09-12T13:42:25;1.80;;;1.70;;
75818;SDS011;64453;51.944;9.796;2023-09-12T13:44:56;4.65;;;1.90;;
75818;SDS011;64453;51.944;9.796;2023-09-12T13:47:23;1.85;;;1.75;;
75818;SDS011;64453;51.944;9.796;2023-09-12T13:49:51;1.77;;;1.67;;
75818;SDS011;64453;51.944;9.796;2023-09-12T13:52:19;1.80;;;1.80;;
75818;SDS011;64453;51.944;9.796;2023-09-12T13:54:46;2.22;;;1.83;;
75818;SDS011;64453;51.944;9.796;2023-09-12T13:57:13;3.15;;;1.60;;
75818;SDS011;64453;51.944;9.796;2023-09-12T13:59:42;1.77;;;1.67;;
75818;SDS011;64453;51.944;9.796;2023-09-12T14:02:09;2.00;;;1.90;;
75818;SDS011;64453;51.944;9.796;2023-09-12T14:04:37;1.73;;;1.63;;
75818;SDS011;64453;51.944;9.796;2023-09-12T14:07:05;2.92;;;1.92;;
75818;SDS011;64453;51.944;9.796;2023-09-12T14:09:32;1.63;;;1.52;;
75818;SDS011;64453;51.944;9.796;2023-09-12T14:11:59;2.15;;;1.50;;
75818;SDS011;64453;51.944;9.796;2023-09-12T14:14:26;1.50;;;1.50;;
75818;SDS011;64453;51.944;9.796;2023-09-12T14:16:54;1.70;;;1.60;;
75818;SDS011;64453;51.944;9.796;2023-09-12T14:19:21;1.75;;;1.63;;
75818;SDS011;64453;51.944;9.796;2023-09-12T14:21:48;1.73;;;1.63;;
75818;SDS011;64453;51.944;9.796;2023-09-12T14:24:15;1.80;;;1.70;;
75818;SDS011;64453;51.944;9.796;2023-09-12T14:26:42;1.90;;;1.80;;
75818;SDS011;64453;51.944;9.796;2023-09-12T14:29:09;2.08;;;1.92;;
75818;SDS011;64453;51.944;9.796;2023-09-12T14:31:36;2.08;;;1.98;;
75818;SDS011;64453;51.944;9.796;2023-09-12T14:34:05;1.80;;;1.70;;
75818;SDS011;64453;51.944;9.796;2023-09-12T14:36:33;4.80;;;2.70;;
75818;SDS011;64453;51.944;9.796;2023-09-12T14:39:00;2.35;;;2.25;;
75818;SDS011;64453;51.944;9.796;2023-09-12T14:41:27;2.67;;;2.47;;
75818;SDS011;64453;51.944;9.796;2023-09-12T14:43:54;5.10;;;2.30;;
75818;SDS011;64453;51.944;9.796;2023-09-12T14:46:21;2.53;;;2.40;;
75818;SDS011;64453;51.944;9.796;2023-09-12T14:48:48;2.28;;;2.17;;
75818;SDS011;64453;51.944;9.796;2023-09-12T14:51:17;2.05;;;1.95;;
75818;SDS011;64453;51.944;9.796;2023-09-12T14:53:44;2.40;;;2.20;;